sensor_id;sensor_type;location;lat;lon;timestamp;P1;durP1;ratioP1;P2;durP2;ratioP2
75446;SDS011;64024;55.820;37.574;2023-01-23T00:01:13;7.78;;;5.68;;
75446;SDS011;64024;55.820;37.574;2023-01-23T00:03:42;7.63;;;4.82;;
75446;SDS011;64024;55.820;37.574;2023-01-23T00:06:12;9.52;;;5.63;;
75446;SDS011;64024;55.820;37.574;2023-01-23T00:08:39;9.05;;;5.20;;
75446;SDS011;64024;55.820;37.574;2023-01-23T00:13:33;7.50;;;5.57;;
75446;SDS011;64024;55.820;37.574;2023-01-23T00:16:02;8.68;;;5.45;;
75446;SDS011;64024;55.820;37.574;2023-01-23T00:18:31;8.45;;;5.10;;
75446;SDS011;64024;55.820;37.574;2023-01-23T00:20:57;7.97;;;5.53;;
75446;SDS011;64024;55.820;37.574;2023-01-23T00:23:23;8.85;;;7.28;;
75446;SDS011;64024;55.820;37.574;2023-01-23T00:25:48;7.80;;;5.60;;
75446;SDS011;64024;55.820;37.574;2023-01-23T00:28:14;10.15;;;6.05;;
75446;SDS011;64024;55.820;37.574;2023-01-23T00:30:39;9.50;;;6.00;;
75446;SDS011;64024;55.820;37.574;2023-01-23T00:33:08;7.75;;;5.03;;
75446;SDS011;64024;55.820;37.574;2023-01-23T00:35:34;8.85;;;5.68;;
75446;SDS011;64024;55.820;37.574;2023-01-23T00:37:59;9.63;;;6.03;;
75446;SDS011;64024;55.820;37.574;2023-01-23T00:40:25;7.75;;;5.80;;
75446;SDS011;64024;55.820;37.574;2023-01-23T00:42:50;7.80;;;5.63;;
75446;SDS011;64024;55.820;37.574;2023-01-23T00:45:17;10.45;;;6.93;;
75446;SDS011;64024;55.820;37.574;2023-01-23T00:47:43;10.82;;;7.88;;
75446;SDS011;64024;55.820;37.574;2023-01-23T00:50:09;9.10;;;6.65;;
75446;SDS011;64024;55.820;37.574;2023-01-23T00:52:35;7.85;;;5.85;;
75446;SDS011;64024;55.820;37.574;2023-01-23T00:55:01;8.07;;;6.00;;
75446;SDS011;64024;55.820;37.574;2023-01-23T00:57:27;6.50;;;5.53;;
75446;SDS011;64024;55.820;37.574;2023-01-23T00:59:52;6.80;;;5.13;;
75446;SDS011;64024;55.820;37.574;2023-01-23T01:02:18;9.20;;;5.88;;
75446;SDS011;64024;55.820;37.574;2023-01-23T01:04:43;5.93;;;4.63;;
75446;SDS011;64024;55.820;37.574;2023-01-23T01:07:09;5.60;;;4.60;;
75446;SDS011;64024;55.820;37.574;2023-01-23T01:09:34;7.38;;;4.60;;
75446;SDS011;64024;55.820;37.574;2023-01-23T01:12:00;8.35;;;5.10;;
75446;SDS011;64024;55.820;37.574;2023-01-23T01:14:25;6.90;;;5.50;;
75446;SDS011;64024;55.820;37.574;2023-01-23T01:16:51;6.43;;;5.53;;
75446;SDS011;64024;55.820;37.574;2023-01-23T01:19:16;6.65;;;5.53;;
75446;SDS011;64024;55.820;37.574;2023-01-23T01:21:43;7.22;;;5.10;;
75446;SDS011;64024;55.820;37.574;2023-01-23T01:24:08;6.93;;;5.22;;
75446;SDS011;64024;55.820;37.574;2023-01-23T01:26:34;7.07;;;5.50;;
75446;SDS011;64024;55.820;37.574;2023-01-23T01:29:00;7.72;;;6.03;;
75446;SDS011;64024;55.820;37.574;2023-01-23T01:31:26;7.32;;;5.35;;
75446;SDS011;64024;55.820;37.574;2023-01-23T01:33:51;8.20;;;5.90;;
75446;SDS011;64024;55.820;37.574;2023-01-23T01:36:18;6.57;;;5.60;;
75446;SDS011;64024;55.820;37.574;2023-01-23T01:38:45;8.88;;;6.60;;
75446;SDS011;64024;55.820;37.574;2023-01-23T01:41:11;7.45;;;5.90;;
75446;SDS011;64024;55.820;37.574;2023-01-23T01:43:38;9.57;;;6.07;;
75446;SDS011;64024;55.820;37.574;2023-01-23T01:46:07;7.07;;;5.85;;
75446;SDS011;64024;55.820;37.574;2023-01-23T01:48:48;6.50;;;5.65;;
75446;SDS011;64024;55.820;37.574;2023-01-23T01:51:37;8.43;;;5.97;;
75446;SDS011;64024;55.820;37.574;2023-01-23T01:57:21;9.55;;;6.18;;
75446;SDS011;64024;55.820;37.574;2023-01-23T02:02:20;8.52;;;6.82;;
75446;SDS011;64024;55.820;37.574;2023-01-23T02:04:50;7.28;;;6.22;;
75446;SDS011;64024;55.820;37.574;2023-01-23T02:10:39;8.55;;;6.38;;
75446;SDS011;64024;55.820;37.574;2023-01-23T02:15:52;8.20;;;7.32;;
75446;SDS011;64024;55.820;37.574;2023-01-23T02:18:19;9.60;;;6.53;;
75446;SDS011;64024;55.820;37.574;2023-01-23T02:20:45;7.40;;;6.40;;
75446;SDS011;64024;55.820;37.574;2023-01-23T02:26:05;7.00;;;6.05;;
75446;SDS011;64024;55.820;37.574;2023-01-23T02:28:38;6.65;;;5.35;;
75446;SDS011;64024;55.820;37.574;2023-01-23T02:31:06;7.85;;;6.88;;
75446;SDS011;64024;55.820;37.574;2023-01-23T02:35:58;6.50;;;5.65;;
75446;SDS011;64024;55.820;37.574;2023-01-23T02:38:25;8.52;;;5.82;;
75446;SDS011;64024;55.820;37.574;2023-01-23T02:40:55;8.25;;;7.00;;
75446;SDS011;64024;55.820;37.574;2023-01-23T02:43:23;8.00;;;5.53;;
75446;SDS011;64024;55.820;37.574;2023-01-23T02:45:52;7.18;;;6.47;;
75446;SDS011;64024;55.820;37.574;2023-01-23T02:48:18;7.00;;;6.22;;
75446;SDS011;64024;55.820;37.574;2023-01-23T02:50:44;7.78;;;5.90;;
75446;SDS011;64024;55.820;37.574;2023-01-23T02:53:10;6.35;;;5.72;;
75446;SDS011;64024;55.820;37.574;2023-01-23T02:55:37;7.07;;;5.63;;
75446;SDS011;64024;55.820;37.574;2023-01-23T02:58:06;6.68;;;5.97;;
75446;SDS011;64024;55.820;37.574;2023-01-23T03:00:50;6.10;;;5.50;;
75446;SDS011;64024;55.820;37.574;2023-01-23T03:03:16;6.75;;;5.50;;
75446;SDS011;64024;55.820;37.574;2023-01-23T03:05:42;8.10;;;5.47;;
75446;SDS011;64024;55.820;37.574;2023-01-23T03:08:07;6.70;;;5.65;;
75446;SDS011;64024;55.820;37.574;2023-01-23T03:10:33;8.10;;;5.40;;
75446;SDS011;64024;55.820;37.574;2023-01-23T03:12:58;7.25;;;4.82;;
75446;SDS011;64024;55.820;37.574;2023-01-23T03:15:28;7.57;;;5.63;;
75446;SDS011;64024;55.820;37.574;2023-01-23T03:17:57;6.07;;;5.47;;
75446;SDS011;64024;55.820;37.574;2023-01-23T03:20:22;5.90;;;5.30;;
75446;SDS011;64024;55.820;37.574;2023-01-23T03:22:48;9.43;;;6.40;;
75446;SDS011;64024;55.820;37.574;2023-01-23T03:25:15;6.88;;;6.18;;
75446;SDS011;64024;55.820;37.574;2023-01-23T03:27:41;7.55;;;6.03;;
75446;SDS011;64024;55.820;37.574;2023-01-23T03:30:07;6.93;;;6.22;;
75446;SDS011;64024;55.820;37.574;2023-01-23T03:32:38;7.20;;;5.95;;
75446;SDS011;64024;55.820;37.574;2023-01-23T03:35:04;6.68;;;5.97;;
75446;SDS011;64024;55.820;37.574;2023-01-23T03:37:31;6.70;;;5.63;;
75446;SDS011;64024;55.820;37.574;2023-01-23T03:39:56;7.03;;;6.10;;
75446;SDS011;64024;55.820;37.574;2023-01-23T03:42:41;6.78;;;5.50;;
75446;SDS011;64024;55.820;37.574;2023-01-23T03:45:07;7.47;;;5.35;;
75446;SDS011;64024;55.820;37.574;2023-01-23T03:47:33;6.78;;;6.07;;
75446;SDS011;64024;55.820;37.574;2023-01-23T03:49:58;6.25;;;5.65;;
75446;SDS011;64024;55.820;37.574;2023-01-23T03:52:24;6.70;;;5.80;;
75446;SDS011;64024;55.820;37.574;2023-01-23T03:54:49;7.60;;;6.22;;
75446;SDS011;64024;55.820;37.574;2023-01-23T03:57:15;5.85;;;5.30;;
75446;SDS011;64024;55.820;37.574;2023-01-23T03:59:41;7.80;;;6.95;;
75446;SDS011;64024;55.820;37.574;2023-01-23T04:02:07;5.90;;;5.30;;
75446;SDS011;64024;55.820;37.574;2023-01-23T04:04:33;6.88;;;6.00;;
75446;SDS011;64024;55.820;37.574;2023-01-23T04:06:58;7.18;;;5.75;;
75446;SDS011;64024;55.820;37.574;2023-01-23T04:09:24;5.82;;;5.05;;
75446;SDS011;64024;55.820;37.574;2023-01-23T04:11:55;6.88;;;6.22;;
75446;SDS011;64024;55.820;37.574;2023-01-23T04:14:22;6.15;;;5.05;;
75446;SDS011;64024;55.820;37.574;2023-01-23T04:16:49;6.07;;;4.88;;
75446;SDS011;64024;55.820;37.574;2023-01-23T04:19:15;6.63;;;5.70;;
75446;SDS011;64024;55.820;37.574;2023-01-23T04:21:44;7.10;;;6.32;;
75446;SDS011;64024;55.820;37.574;2023-01-23T04:24:10;6.95;;;5.75;;
75446;SDS011;64024;55.820;37.574;2023-01-23T04:26:36;6.53;;;5.75;;
75446;SDS011;64024;55.820;37.574;2023-01-23T04:29:02;6.75;;;5.30;;
75446;SDS011;64024;55.820;37.574;2023-01-23T04:31:28;6.25;;;5.65;;
75446;SDS011;64024;55.820;37.574;2023-01-23T04:33:53;6.30;;;5.70;;
75446;SDS011;64024;55.820;37.574;2023-01-23T04:36:19;7.32;;;6.15;;
75446;SDS011;64024;55.820;37.574;2023-01-23T04:38:45;6.65;;;5.90;;
75446;SDS011;64024;55.820;37.574;2023-01-23T04:41:16;6.93;;;6.13;;
75446;SDS011;64024;55.820;37.574;2023-01-23T04:43:49;6.32;;;5.55;;
75446;SDS011;64024;55.820;37.574;2023-01-23T04:46:15;7.25;;;6.53;;
75446;SDS011;64024;55.820;37.574;2023-01-23T04:48:41;5.93;;;5.18;;
75446;SDS011;64024;55.820;37.574;2023-01-23T04:51:07;7.13;;;5.38;;
75446;SDS011;64024;55.820;37.574;2023-01-23T04:53:32;7.43;;;5.93;;
75446;SDS011;64024;55.820;37.574;2023-01-23T04:55:58;6.85;;;6.25;;
75446;SDS011;64024;55.820;37.574;2023-01-23T04:58:24;8.00;;;6.20;;
75446;SDS011;64024;55.820;37.574;2023-01-23T05:00:50;7.18;;;6.47;;
75446;SDS011;64024;55.820;37.574;2023-01-23T05:03:15;6.72;;;5.95;;
75446;SDS011;64024;55.820;37.574;2023-01-23T05:05:41;7.60;;;5.90;;
75446;SDS011;64024;55.820;37.574;2023-01-23T05:08:08;7.53;;;5.53;;
75446;SDS011;64024;55.820;37.574;2023-01-23T05:10:35;8.10;;;6.75;;
75446;SDS011;64024;55.820;37.574;2023-01-23T05:13:01;6.07;;;5.47;;
75446;SDS011;64024;55.820;37.574;2023-01-23T05:15:27;8.52;;;6.80;;
75446;SDS011;64024;55.820;37.574;2023-01-23T05:17:52;7.55;;;6.15;;
75446;SDS011;64024;55.820;37.574;2023-01-23T05:20:18;8.38;;;6.57;;
75446;SDS011;64024;55.820;37.574;2023-01-23T05:22:44;8.07;;;5.80;;
75446;SDS011;64024;55.820;37.574;2023-01-23T05:25:17;7.93;;;5.95;;
75446;SDS011;64024;55.820;37.574;2023-01-23T05:30:09;6.07;;;5.47;;
75446;SDS011;64024;55.820;37.574;2023-01-23T05:32:35;7.07;;;6.38;;
75446;SDS011;64024;55.820;37.574;2023-01-23T05:35:01;7.70;;;5.93;;
75446;SDS011;64024;55.820;37.574;2023-01-23T05:37:26;7.05;;;5.75;;
75446;SDS011;64024;55.820;37.574;2023-01-23T05:39:52;7.40;;;6.20;;
75446;SDS011;64024;55.820;37.574;2023-01-23T05:42:17;8.10;;;5.88;;
75446;SDS011;64024;55.820;37.574;2023-01-23T05:44:43;8.18;;;6.45;;
75446;SDS011;64024;55.820;37.574;2023-01-23T05:47:08;7.55;;;6.85;;
75446;SDS011;64024;55.820;37.574;2023-01-23T05:49:34;8.52;;;6.38;;
75446;SDS011;64024;55.820;37.574;2023-01-23T05:51:59;8.32;;;6.97;;
75446;SDS011;64024;55.820;37.574;2023-01-23T05:54:25;6.95;;;6.03;;
75446;SDS011;64024;55.820;37.574;2023-01-23T05:56:50;8.30;;;6.47;;
75446;SDS011;64024;55.820;37.574;2023-01-23T05:59:16;7.80;;;7.03;;
75446;SDS011;64024;55.820;37.574;2023-01-23T06:01:41;7.18;;;6.32;;
75446;SDS011;64024;55.820;37.574;2023-01-23T06:04:07;7.68;;;6.28;;
75446;SDS011;64024;55.820;37.574;2023-01-23T06:06:33;6.65;;;5.95;;
75446;SDS011;64024;55.820;37.574;2023-01-23T06:08:58;7.45;;;6.25;;
75446;SDS011;64024;55.820;37.574;2023-01-23T06:11:24;8.77;;;6.72;;
75446;SDS011;64024;55.820;37.574;2023-01-23T06:13:50;7.97;;;6.45;;
75446;SDS011;64024;55.820;37.574;2023-01-23T06:16:15;11.30;;;6.95;;
75446;SDS011;64024;55.820;37.574;2023-01-23T06:18:41;7.13;;;6.13;;
75446;SDS011;64024;55.820;37.574;2023-01-23T06:21:06;6.55;;;5.78;;
75446;SDS011;64024;55.820;37.574;2023-01-23T06:23:32;8.27;;;6.80;;
75446;SDS011;64024;55.820;37.574;2023-01-23T06:25:58;7.95;;;6.40;;
75446;SDS011;64024;55.820;37.574;2023-01-23T06:28:24;6.80;;;6.00;;
75446;SDS011;64024;55.820;37.574;2023-01-23T06:30:50;8.10;;;6.25;;
75446;SDS011;64024;55.820;37.574;2023-01-23T06:33:16;8.30;;;6.28;;
75446;SDS011;64024;55.820;37.574;2023-01-23T06:35:41;6.88;;;6.05;;
75446;SDS011;64024;55.820;37.574;2023-01-23T06:38:07;6.97;;;5.93;;
75446;SDS011;64024;55.820;37.574;2023-01-23T06:40:32;7.78;;;6.53;;
75446;SDS011;64024;55.820;37.574;2023-01-23T06:42:58;7.63;;;6.88;;
75446;SDS011;64024;55.820;37.574;2023-01-23T06:45:23;9.07;;;6.03;;
75446;SDS011;64024;55.820;37.574;2023-01-23T06:47:50;8.40;;;6.13;;
75446;SDS011;64024;55.820;37.574;2023-01-23T06:50:16;7.53;;;6.32;;
75446;SDS011;64024;55.820;37.574;2023-01-23T06:52:42;6.97;;;5.88;;
75446;SDS011;64024;55.820;37.574;2023-01-23T06:55:08;6.22;;;5.30;;
75446;SDS011;64024;55.820;37.574;2023-01-23T06:57:34;6.82;;;5.38;;
75446;SDS011;64024;55.820;37.574;2023-01-23T06:59:59;8.68;;;6.22;;
75446;SDS011;64024;55.820;37.574;2023-01-23T07:02:25;7.00;;;5.85;;
75446;SDS011;64024;55.820;37.574;2023-01-23T07:04:50;6.30;;;5.45;;
75446;SDS011;64024;55.820;37.574;2023-01-23T07:07:16;8.73;;;6.10;;
75446;SDS011;64024;55.820;37.574;2023-01-23T07:09:42;6.97;;;6.25;;
75446;SDS011;64024;55.820;37.574;2023-01-23T07:12:08;6.05;;;5.45;;
75446;SDS011;64024;55.820;37.574;2023-01-23T07:14:34;8.10;;;5.93;;
75446;SDS011;64024;55.820;37.574;2023-01-23T07:17:00;6.57;;;5.95;;
75446;SDS011;64024;55.820;37.574;2023-01-23T07:19:26;5.88;;;5.30;;
75446;SDS011;64024;55.820;37.574;2023-01-23T07:21:51;5.35;;;4.63;;
75446;SDS011;64024;55.820;37.574;2023-01-23T07:24:17;5.32;;;4.80;;
75446;SDS011;64024;55.820;37.574;2023-01-23T07:26:42;6.55;;;5.18;;
75446;SDS011;64024;55.820;37.574;2023-01-23T07:29:08;5.13;;;4.53;;
75446;SDS011;64024;55.820;37.574;2023-01-23T07:31:34;5.20;;;4.68;;
75446;SDS011;64024;55.820;37.574;2023-01-23T07:34:00;5.78;;;4.90;;
75446;SDS011;64024;55.820;37.574;2023-01-23T07:36:26;5.00;;;4.43;;
75446;SDS011;64024;55.820;37.574;2023-01-23T07:38:52;8.35;;;6.18;;
75446;SDS011;64024;55.820;37.574;2023-01-23T07:41:20;5.20;;;4.70;;
75446;SDS011;64024;55.820;37.574;2023-01-23T07:43:45;5.47;;;4.45;;
75446;SDS011;64024;55.820;37.574;2023-01-23T07:46:11;6.00;;;4.00;;
75446;SDS011;64024;55.820;37.574;2023-01-23T07:48:36;5.45;;;4.68;;
75446;SDS011;64024;55.820;37.574;2023-01-23T07:51:02;5.53;;;4.60;;
75446;SDS011;64024;55.820;37.574;2023-01-23T07:53:28;5.28;;;4.53;;
75446;SDS011;64024;55.820;37.574;2023-01-23T07:55:54;5.90;;;4.82;;
75446;SDS011;64024;55.820;37.574;2023-01-23T07:58:20;6.22;;;4.60;;
75446;SDS011;64024;55.820;37.574;2023-01-23T08:00:45;7.85;;;5.60;;
75446;SDS011;64024;55.820;37.574;2023-01-23T08:03:11;7.28;;;6.13;;
75446;SDS011;64024;55.820;37.574;2023-01-23T08:05:36;10.05;;;7.38;;
75446;SDS011;64024;55.820;37.574;2023-01-23T08:08:02;9.48;;;8.27;;
75446;SDS011;64024;55.820;37.574;2023-01-23T08:10:28;9.00;;;8.10;;
75446;SDS011;64024;55.820;37.574;2023-01-23T08:12:53;7.60;;;6.30;;
75446;SDS011;64024;55.820;37.574;2023-01-23T08:15:19;10.27;;;6.85;;
75446;SDS011;64024;55.820;37.574;2023-01-23T08:17:44;7.25;;;5.68;;
75446;SDS011;64024;55.820;37.574;2023-01-23T08:20:10;6.57;;;5.38;;
75446;SDS011;64024;55.820;37.574;2023-01-23T08:22:36;6.40;;;4.70;;
75446;SDS011;64024;55.820;37.574;2023-01-23T08:25:05;6.43;;;4.93;;
75446;SDS011;64024;55.820;37.574;2023-01-23T08:27:33;7.20;;;5.78;;
75446;SDS011;64024;55.820;37.574;2023-01-23T08:29:58;6.78;;;4.97;;
75446;SDS011;64024;55.820;37.574;2023-01-23T08:32:24;59.88;;;32.40;;
75446;SDS011;64024;55.820;37.574;2023-01-23T08:34:52;41.15;;;20.92;;
75446;SDS011;64024;55.820;37.574;2023-01-23T08:37:19;32.60;;;16.65;;
75446;SDS011;64024;55.820;37.574;2023-01-23T08:39:44;25.15;;;13.55;;
75446;SDS011;64024;55.820;37.574;2023-01-23T08:42:10;19.98;;;10.60;;
75446;SDS011;64024;55.820;37.574;2023-01-23T08:44:35;13.23;;;8.15;;
75446;SDS011;64024;55.820;37.574;2023-01-23T08:47:01;19.33;;;14.93;;
75446;SDS011;64024;55.820;37.574;2023-01-23T08:49:29;13.43;;;8.35;;
75446;SDS011;64024;55.820;37.574;2023-01-23T08:51:55;11.20;;;6.97;;
75446;SDS011;64024;55.820;37.574;2023-01-23T08:54:21;12.55;;;8.15;;
75446;SDS011;64024;55.820;37.574;2023-01-23T08:56:47;12.13;;;9.55;;
75446;SDS011;64024;55.820;37.574;2023-01-23T08:59:12;10.95;;;8.77;;
75446;SDS011;64024;55.820;37.574;2023-01-23T09:01:38;8.88;;;6.60;;
75446;SDS011;64024;55.820;37.574;2023-01-23T09:04:03;9.57;;;6.00;;
75446;SDS011;64024;55.820;37.574;2023-01-23T09:06:29;13.98;;;8.88;;
75446;SDS011;64024;55.820;37.574;2023-01-23T09:08:54;11.32;;;8.60;;
75446;SDS011;64024;55.820;37.574;2023-01-23T09:11:20;7.88;;;6.50;;
75446;SDS011;64024;55.820;37.574;2023-01-23T09:13:47;8.23;;;5.50;;
75446;SDS011;64024;55.820;37.574;2023-01-23T09:16:13;9.50;;;6.10;;
75446;SDS011;64024;55.820;37.574;2023-01-23T09:18:39;7.40;;;5.72;;
75446;SDS011;64024;55.820;37.574;2023-01-23T09:21:05;7.28;;;5.35;;
75446;SDS011;64024;55.820;37.574;2023-01-23T09:23:32;7.93;;;5.57;;
75446;SDS011;64024;55.820;37.574;2023-01-23T09:26:16;8.50;;;5.18;;
75446;SDS011;64024;55.820;37.574;2023-01-23T09:28:41;6.78;;;5.03;;
75446;SDS011;64024;55.820;37.574;2023-01-23T09:31:08;6.32;;;4.82;;
75446;SDS011;64024;55.820;37.574;2023-01-23T09:33:35;6.28;;;4.78;;
75446;SDS011;64024;55.820;37.574;2023-01-23T09:36:02;5.60;;;4.47;;
75446;SDS011;64024;55.820;37.574;2023-01-23T09:38:28;12.70;;;11.50;;
75446;SDS011;64024;55.820;37.574;2023-01-23T09:40:57;6.10;;;5.32;;
75446;SDS011;64024;55.820;37.574;2023-01-23T09:49:04;6.03;;;4.53;;
75446;SDS011;64024;55.820;37.574;2023-01-23T09:52:02;6.53;;;4.60;;
75446;SDS011;64024;55.820;37.574;2023-01-23T09:57:03;7.78;;;5.53;;
75446;SDS011;64024;55.820;37.574;2023-01-23T09:59:37;9.85;;;8.90;;
75446;SDS011;64024;55.820;37.574;2023-01-23T10:02:17;8.32;;;5.47;;
75446;SDS011;64024;55.820;37.574;2023-01-23T10:04:48;6.65;;;5.47;;
75446;SDS011;64024;55.820;37.574;2023-01-23T10:10:05;6.35;;;4.97;;
75446;SDS011;64024;55.820;37.574;2023-01-23T10:26:15;15.80;;;14.18;;
75446;SDS011;64024;55.820;37.574;2023-01-23T10:29:05;19.00;;;16.90;;
75446;SDS011;64024;55.820;37.574;2023-01-23T10:31:52;25.40;;;22.90;;
75446;SDS011;64024;55.820;37.574;2023-01-23T10:34:27;23.27;;;16.15;;
75446;SDS011;64024;55.820;37.574;2023-01-23T10:42:29;11.57;;;8.15;;
75446;SDS011;64024;55.820;37.574;2023-01-23T10:44:57;21.10;;;18.92;;
75446;SDS011;64024;55.820;37.574;2023-01-23T10:47:36;17.73;;;14.30;;
75446;SDS011;64024;55.820;37.574;2023-01-23T10:50:12;10.30;;;8.00;;
75446;SDS011;64024;55.820;37.574;2023-01-23T10:52:42;8.23;;;6.43;;
75446;SDS011;64024;55.820;37.574;2023-01-23T10:57:45;7.45;;;6.07;;
75446;SDS011;64024;55.820;37.574;2023-01-23T11:02:54;7.53;;;5.20;;
75446;SDS011;64024;55.820;37.574;2023-01-23T11:05:40;6.40;;;4.88;;
75446;SDS011;64024;55.820;37.574;2023-01-23T11:13:24;5.38;;;4.47;;
75446;SDS011;64024;55.820;37.574;2023-01-23T11:15:52;6.30;;;4.50;;
75446;SDS011;64024;55.820;37.574;2023-01-23T11:18:31;6.80;;;5.85;;
75446;SDS011;64024;55.820;37.574;2023-01-23T11:21:00;7.53;;;5.90;;
75446;SDS011;64024;55.820;37.574;2023-01-23T11:23:26;6.45;;;4.97;;
75446;SDS011;64024;55.820;37.574;2023-01-23T11:25:54;9.05;;;5.80;;
75446;SDS011;64024;55.820;37.574;2023-01-23T11:30:51;7.32;;;5.97;;
75446;SDS011;64024;55.820;37.574;2023-01-23T11:41:15;6.70;;;5.13;;
75446;SDS011;64024;55.820;37.574;2023-01-23T11:43:40;6.93;;;4.93;;
75446;SDS011;64024;55.820;37.574;2023-01-23T11:51:42;7.10;;;4.93;;
75446;SDS011;64024;55.820;37.574;2023-01-23T11:57:35;8.38;;;5.43;;
75446;SDS011;64024;55.820;37.574;2023-01-23T12:00:15;6.85;;;4.60;;
75446;SDS011;64024;55.820;37.574;2023-01-23T12:02:49;6.00;;;5.30;;
75446;SDS011;64024;55.820;37.574;2023-01-23T12:05:41;8.05;;;5.43;;
75446;SDS011;64024;55.820;37.574;2023-01-23T12:08:34;6.68;;;5.22;;
75446;SDS011;64024;55.820;37.574;2023-01-23T12:11:20;6.22;;;4.57;;
75446;SDS011;64024;55.820;37.574;2023-01-23T12:13:55;9.80;;;5.15;;
75446;SDS011;64024;55.820;37.574;2023-01-23T12:19:36;7.97;;;6.15;;
75446;SDS011;64024;55.820;37.574;2023-01-23T12:32:41;11.30;;;10.18;;
75446;SDS011;64024;55.820;37.574;2023-01-23T12:40:32;15.00;;;13.52;;
75446;SDS011;64024;55.820;37.574;2023-01-23T12:43:41;11.13;;;9.50;;
75446;SDS011;64024;55.820;37.574;2023-01-23T12:46:21;7.43;;;6.22;;
75446;SDS011;64024;55.820;37.574;2023-01-23T12:48:54;6.10;;;5.50;;
75446;SDS011;64024;55.820;37.574;2023-01-23T12:51:26;6.05;;;5.38;;
75446;SDS011;64024;55.820;37.574;2023-01-23T12:54:09;7.80;;;6.43;;
75446;SDS011;64024;55.820;37.574;2023-01-23T12:56:40;7.72;;;6.55;;
75446;SDS011;64024;55.820;37.574;2023-01-23T12:59:10;9.57;;;8.27;;
75446;SDS011;64024;55.820;37.574;2023-01-23T13:02:03;9.60;;;5.63;;
75446;SDS011;64024;55.820;37.574;2023-01-23T13:12:31;6.03;;;4.93;;
75446;SDS011;64024;55.820;37.574;2023-01-23T13:20:24;8.15;;;5.85;;
75446;SDS011;64024;55.820;37.574;2023-01-23T13:23:22;6.28;;;5.47;;
75446;SDS011;64024;55.820;37.574;2023-01-23T13:28:40;9.07;;;6.80;;
75446;SDS011;64024;55.820;37.574;2023-01-23T13:31:09;7.05;;;5.57;;
75446;SDS011;64024;55.820;37.574;2023-01-23T13:33:47;6.32;;;5.07;;
75446;SDS011;64024;55.820;37.574;2023-01-23T13:36:24;6.72;;;5.35;;
75446;SDS011;64024;55.820;37.574;2023-01-23T13:41:39;6.78;;;5.35;;
75446;SDS011;64024;55.820;37.574;2023-01-23T13:49:37;6.80;;;4.75;;
75446;SDS011;64024;55.820;37.574;2023-01-23T13:52:25;6.75;;;5.10;;
75446;SDS011;64024;55.820;37.574;2023-01-23T13:55:14;4.85;;;3.97;;
75446;SDS011;64024;55.820;37.574;2023-01-23T13:58:05;7.03;;;5.38;;
75446;SDS011;64024;55.820;37.574;2023-01-23T14:00:34;6.80;;;5.53;;
75446;SDS011;64024;55.820;37.574;2023-01-23T14:06:06;6.10;;;4.80;;
75446;SDS011;64024;55.820;37.574;2023-01-23T14:08:43;5.10;;;4.25;;
75446;SDS011;64024;55.820;37.574;2023-01-23T14:11:12;4.97;;;4.28;;
75446;SDS011;64024;55.820;37.574;2023-01-23T14:13:45;5.70;;;4.20;;
75446;SDS011;64024;55.820;37.574;2023-01-23T14:16:12;5.20;;;4.70;;
75446;SDS011;64024;55.820;37.574;2023-01-23T14:21:23;4.50;;;4.10;;
75446;SDS011;64024;55.820;37.574;2023-01-23T14:23:51;5.50;;;4.90;;
75446;SDS011;64024;55.820;37.574;2023-01-23T14:26:19;6.35;;;4.38;;
75446;SDS011;64024;55.820;37.574;2023-01-23T14:28:52;5.07;;;4.03;;
75446;SDS011;64024;55.820;37.574;2023-01-23T14:31:24;5.05;;;4.22;;
75446;SDS011;64024;55.820;37.574;2023-01-23T14:34:00;5.25;;;4.25;;
75446;SDS011;64024;55.820;37.574;2023-01-23T14:36:44;6.35;;;5.22;;
75446;SDS011;64024;55.820;37.574;2023-01-23T14:39:16;4.93;;;4.03;;
75446;SDS011;64024;55.820;37.574;2023-01-23T14:41:47;5.63;;;4.80;;
75446;SDS011;64024;55.820;37.574;2023-01-23T14:44:27;6.18;;;5.05;;
75446;SDS011;64024;55.820;37.574;2023-01-23T14:46:57;5.78;;;4.65;;
75446;SDS011;64024;55.820;37.574;2023-01-23T14:49:29;6.22;;;4.53;;
75446;SDS011;64024;55.820;37.574;2023-01-23T14:51:59;6.18;;;5.32;;
75446;SDS011;64024;55.820;37.574;2023-01-23T14:54:27;6.43;;;4.80;;
75446;SDS011;64024;55.820;37.574;2023-01-23T14:56:59;5.90;;;4.53;;
75446;SDS011;64024;55.820;37.574;2023-01-23T14:59:37;5.75;;;4.45;;
75446;SDS011;64024;55.820;37.574;2023-01-23T15:08:00;4.90;;;4.35;;
75446;SDS011;64024;55.820;37.574;2023-01-23T15:10:46;5.03;;;3.95;;
75446;SDS011;64024;55.820;37.574;2023-01-23T15:13:22;5.88;;;4.95;;
75446;SDS011;64024;55.820;37.574;2023-01-23T15:15:56;5.75;;;4.43;;
75446;SDS011;64024;55.820;37.574;2023-01-23T15:18:27;6.30;;;4.80;;
75446;SDS011;64024;55.820;37.574;2023-01-23T15:20:56;5.35;;;4.72;;
75446;SDS011;64024;55.820;37.574;2023-01-23T15:23:59;7.43;;;5.40;;
75446;SDS011;64024;55.820;37.574;2023-01-23T15:26:34;6.78;;;6.15;;
75446;SDS011;64024;55.820;37.574;2023-01-23T15:31:34;6.03;;;5.43;;
75446;SDS011;64024;55.820;37.574;2023-01-23T15:36:38;8.90;;;8.00;;
75446;SDS011;64024;55.820;37.574;2023-01-23T15:39:20;5.75;;;5.03;;
75446;SDS011;64024;55.820;37.574;2023-01-23T15:41:53;6.13;;;4.95;;
75446;SDS011;64024;55.820;37.574;2023-01-23T15:44:21;7.38;;;4.53;;
75446;SDS011;64024;55.820;37.574;2023-01-23T15:46:49;7.32;;;6.30;;
75446;SDS011;64024;55.820;37.574;2023-01-23T15:49:14;6.38;;;5.20;;
75446;SDS011;64024;55.820;37.574;2023-01-23T15:51:40;9.60;;;5.25;;
75446;SDS011;64024;55.820;37.574;2023-01-23T15:54:09;7.53;;;6.35;;
75446;SDS011;64024;55.820;37.574;2023-01-23T15:56:39;8.45;;;6.10;;
75446;SDS011;64024;55.820;37.574;2023-01-23T15:59:12;7.75;;;5.43;;
75446;SDS011;64024;55.820;37.574;2023-01-23T16:01:39;5.22;;;4.10;;
75446;SDS011;64024;55.820;37.574;2023-01-23T16:04:04;5.28;;;4.18;;
75446;SDS011;64024;55.820;37.574;2023-01-23T16:06:30;6.97;;;4.25;;
75446;SDS011;64024;55.820;37.574;2023-01-23T16:08:56;5.70;;;3.85;;
75446;SDS011;64024;55.820;37.574;2023-01-23T16:11:21;5.68;;;3.78;;
75446;SDS011;64024;55.820;37.574;2023-01-23T16:13:47;6.72;;;4.57;;
75446;SDS011;64024;55.820;37.574;2023-01-23T16:16:13;5.45;;;4.25;;
75446;SDS011;64024;55.820;37.574;2023-01-23T16:18:40;5.25;;;4.22;;
75446;SDS011;64024;55.820;37.574;2023-01-23T16:21:06;5.38;;;4.13;;
75446;SDS011;64024;55.820;37.574;2023-01-23T16:23:35;6.00;;;3.97;;
75446;SDS011;64024;55.820;37.574;2023-01-23T16:26:01;5.95;;;4.07;;
75446;SDS011;64024;55.820;37.574;2023-01-23T16:28:26;4.30;;;3.58;;
75446;SDS011;64024;55.820;37.574;2023-01-23T16:30:53;5.93;;;5.00;;
75446;SDS011;64024;55.820;37.574;2023-01-23T16:33:19;4.50;;;3.47;;
75446;SDS011;64024;55.820;37.574;2023-01-23T16:35:45;4.80;;;3.95;;
75446;SDS011;64024;55.820;37.574;2023-01-23T16:38:22;5.55;;;4.38;;
75446;SDS011;64024;55.820;37.574;2023-01-23T16:40:50;4.32;;;3.53;;
75446;SDS011;64024;55.820;37.574;2023-01-23T16:43:18;7.63;;;4.35;;
75446;SDS011;64024;55.820;37.574;2023-01-23T16:45:44;4.70;;;3.92;;
75446;SDS011;64024;55.820;37.574;2023-01-23T16:48:09;5.05;;;3.65;;
75446;SDS011;64024;55.820;37.574;2023-01-23T16:50:39;4.15;;;3.75;;
75446;SDS011;64024;55.820;37.574;2023-01-23T16:53:11;4.15;;;3.78;;
75446;SDS011;64024;55.820;37.574;2023-01-23T16:55:47;5.18;;;3.95;;
75446;SDS011;64024;55.820;37.574;2023-01-23T16:58:18;5.40;;;3.58;;
75446;SDS011;64024;55.820;37.574;2023-01-23T17:00:47;4.80;;;3.90;;
75446;SDS011;64024;55.820;37.574;2023-01-23T17:03:23;5.25;;;3.85;;
75446;SDS011;64024;55.820;37.574;2023-01-23T17:05:53;5.00;;;3.45;;